createdAt,value
2022-11-05T00:02:23.453Z,8.10
2022-11-05T00:05:09.076Z,8.10
2022-11-05T00:08:01.236Z,8.20
2022-11-05T00:10:30.994Z,8.30
2022-11-05T00:13:17.977Z,8.20
2022-11-05T00:16:04.143Z,8.10
2022-11-05T00:18:31.272Z,8.20
2022-11-05T00:20:58.097Z,8.20
2022-11-05T00:23:43.239Z,8.10
2022-11-05T00:26:11.764Z,8.10
2022-11-05T00:28:43.955Z,7.90
2022-11-05T00:31:13.883Z,8.10
2022-11-05T00:33:42.094Z,8.20
2022-11-05T00:36:11.020Z,8.40
2022-11-05T00:38:37.854Z,8.20
2022-11-05T00:41:04.682Z,8.00
2022-11-05T00:43:49.974Z,8.10
2022-11-05T00:46:16.707Z,8.10
2022-11-05T00:49:01.889Z,8.10
2022-11-05T00:51:28.591Z,8.00
2022-11-05T00:53:55.295Z,8.10
2022-11-05T00:56:22.098Z,8.00
2022-11-05T00:58:48.991Z,8.10
2022-11-05T01:01:16.133Z,8.10
2022-11-05T01:03:46.229Z,8.20
2022-11-05T01:06:17.886Z,8.30
2022-11-05T01:08:45.951Z,8.40
2022-11-05T01:11:38.645Z,8.40
2022-11-05T01:14:08.768Z,8.40
2022-11-05T01:16:36.965Z,8.50
2022-11-05T01:19:05.773Z,8.60
2022-11-05T01:21:32.598Z,8.80
2022-11-05T01:23:59.596Z,8.60
2022-11-05T01:26:26.945Z,8.50
2022-11-05T01:28:55.295Z,8.50
2022-11-05T01:31:22.805Z,8.50
2022-11-05T01:33:50.016Z,8.70
2022-11-05T01:36:17.347Z,8.30
2022-11-05T01:38:44.344Z,8.80
2022-11-05T01:41:11.437Z,8.40
2022-11-05T01:43:50.300Z,8.40
2022-11-05T01:46:42.625Z,8.20
2022-11-05T01:49:18.238Z,8.20
2022-11-05T01:51:45.993Z,8.20
2022-11-05T01:54:16.602Z,8.40
2022-11-05T01:57:03.922Z,8.10
2022-11-05T01:59:35.038Z,8.30
2022-11-05T02:02:02.766Z,8.80
2022-11-05T02:04:35.718Z,8.50
2022-11-05T02:07:04.548Z,8.60
2022-11-05T02:09:54.676Z,8.60
2022-11-05T02:12:22.078Z,8.60
2022-11-05T02:14:48.892Z,8.80
2022-11-05T02:17:53.916Z,9.10
2022-11-05T02:20:26.356Z,8.70
2022-11-05T02:23:21.173Z,8.80
2022-11-05T02:26:03.103Z,8.70
2022-11-05T02:28:57.691Z,8.60
2022-11-05T02:31:49.874Z,8.60
2022-11-05T02:34:26.546Z,8.60
2022-11-05T02:37:27.967Z,8.60
2022-11-05T02:40:36.115Z,8.70
2022-11-05T02:43:20.709Z,8.70
2022-11-05T02:46:11.591Z,8.80
2022-11-05T02:49:22.598Z,8.70
2022-11-05T02:52:03.155Z,8.60
2022-11-05T02:54:41.104Z,8.60
2022-11-05T02:57:07.955Z,8.60
2022-11-05T02:59:34.655Z,8.70
2022-11-05T03:02:02.559Z,8.50
2022-11-05T03:04:30.792Z,8.70
2022-11-05T03:07:34.924Z,8.70
2022-11-05T03:10:39.699Z,8.80
2022-11-05T03:13:06.344Z,8.80
2022-11-05T03:15:52.108Z,8.80
2022-11-05T03:18:26.656Z,8.80
2022-11-05T03:21:15.053Z,8.80
2022-11-05T03:24:08.127Z,8.80
2022-11-05T03:26:48.007Z,8.80
2022-11-05T03:29:22.823Z,8.80
2022-11-05T03:31:52.338Z,8.70
2022-11-05T03:34:24.910Z,8.60
2022-11-05T03:36:54.835Z,8.60
2022-11-05T03:39:37.211Z,8.60
2022-11-05T03:42:07.259Z,8.30
2022-11-05T03:44:38.690Z,8.50
2022-11-05T03:47:19.651Z,8.40
2022-11-05T03:50:12.919Z,8.60
2022-11-05T03:52:48.128Z,8.60
2022-11-05T03:55:15.463Z,8.50
2022-11-05T03:57:47.219Z,8.60
2022-11-05T04:00:14.216Z,8.20
2022-11-05T04:02:41.925Z,8.60
2022-11-05T04:05:09.105Z,8.80
2022-11-05T04:07:54.191Z,8.70
2022-11-05T04:10:39.684Z,8.70
2022-11-05T04:13:24.700Z,8.60
2022-11-05T04:16:14.638Z,8.50
2022-11-05T04:18:42.340Z,8.50
2022-11-05T04:21:29.044Z,8.40
2022-11-05T04:24:11.127Z,8.30
2022-11-05T04:26:43.891Z,8.40
2022-11-05T04:29:29.313Z,8.40
2022-11-05T04:31:56.389Z,8.50
2022-11-05T04:34:23.228Z,8.50
2022-11-05T04:36:52.323Z,8.30
2022-11-05T04:39:20.331Z,8.40
2022-11-05T04:41:50.277Z,8.50
2022-11-05T04:44:17.133Z,8.50
2022-11-05T04:46:44.031Z,8.50
2022-11-05T04:49:10.780Z,8.50
2022-11-05T04:51:37.450Z,8.50
2022-11-05T04:54:04.251Z,8.50
2022-11-05T04:56:30.914Z,8.50
2022-11-05T04:58:57.592Z,8.60
2022-11-05T05:01:25.420Z,8.50
2022-11-05T05:03:54.156Z,8.40
2022-11-05T05:06:21.881Z,8.50
2022-11-05T05:08:50.230Z,8.50
2022-11-05T05:11:20.200Z,8.50
2022-11-05T05:13:47.634Z,8.50
2022-11-05T05:16:22.921Z,8.30
2022-11-05T05:18:50.206Z,8.40
2022-11-05T05:21:36.933Z,8.30
2022-11-05T05:24:04.666Z,8.20
2022-11-05T05:26:31.683Z,8.30
2022-11-05T05:28:58.359Z,8.20
2022-11-05T05:31:25.239Z,8.40
2022-11-05T05:33:55.261Z,8.50
2022-11-05T05:36:22.472Z,8.30
2022-11-05T05:38:49.471Z,8.10
2022-11-05T05:41:16.684Z,8.40
2022-11-05T05:43:43.770Z,8.50
2022-11-05T05:46:12.976Z,8.20
2022-11-05T05:48:40.014Z,8.10
2022-11-05T05:51:09.655Z,8.20
2022-11-05T05:53:37.097Z,8.30
2022-11-05T05:56:05.137Z,8.20
2022-11-05T05:58:34.775Z,8.30
2022-11-05T06:01:03.477Z,8.20
2022-11-05T06:03:30.260Z,8.60
2022-11-05T06:06:08.530Z,8.30
2022-11-05T06:08:35.557Z,8.40
2022-11-05T06:11:03.939Z,8.30
2022-11-05T06:13:31.233Z,8.30
2022-11-05T06:16:05.690Z,8.40
2022-11-05T06:18:33.088Z,8.30
2022-11-05T06:21:06.182Z,8.30
2022-11-05T06:23:33.346Z,8.30
2022-11-05T06:26:05.114Z,8.30
2022-11-05T06:28:31.932Z,8.30
2022-11-05T06:30:58.663Z,8.20
2022-11-05T06:33:25.989Z,8.30
2022-11-05T06:35:53.873Z,8.10
2022-11-05T06:38:20.794Z,8.30
2022-11-05T06:40:47.494Z,8.20
2022-11-05T06:43:14.526Z,8.40
2022-11-05T06:45:41.495Z,8.40
2022-11-05T06:48:09.568Z,8.40
2022-11-05T06:50:36.276Z,8.40
2022-11-05T06:53:04.773Z,8.40
2022-11-05T06:55:32.208Z,8.30
2022-11-05T06:57:58.996Z,8.40
2022-11-05T07:00:26.059Z,8.50
2022-11-05T07:02:52.950Z,8.50
2022-11-05T07:05:19.654Z,9.00
2022-11-05T07:07:46.378Z,8.50
2022-11-05T07:10:15.717Z,9.10
2022-11-05T07:12:42.730Z,8.30
2022-11-05T07:15:10.819Z,8.60
2022-11-05T07:17:38.007Z,8.40
2022-11-05T07:20:06.009Z,8.20
2022-11-05T07:22:33.387Z,8.30
2022-11-05T07:25:00.374Z,8.30
2022-11-05T07:27:27.267Z,8.20
2022-11-05T07:29:54.003Z,8.10
2022-11-05T07:32:20.757Z,8.30
2022-11-05T07:34:47.449Z,8.40
2022-11-05T07:37:16.610Z,8.60
2022-11-05T07:39:43.499Z,8.50
2022-11-05T07:42:13.914Z,9.30
2022-11-05T07:44:41.066Z,8.50
2022-11-05T07:47:07.976Z,8.70
2022-11-05T07:49:34.729Z,9.20
2022-11-05T07:52:01.486Z,8.50
2022-11-05T07:54:28.159Z,8.80
2022-11-05T07:56:54.909Z,8.80
2022-11-05T07:59:21.667Z,8.70
2022-11-05T08:01:48.604Z,8.50
2022-11-05T08:04:15.450Z,8.60
2022-11-05T08:06:42.108Z,9.00
2022-11-05T08:09:09.622Z,8.80
2022-11-05T08:11:36.299Z,8.80
2022-11-05T08:14:03.133Z,8.90
2022-11-05T08:16:30.008Z,9.00
2022-11-05T08:18:56.723Z,8.90
2022-11-05T08:21:23.452Z,8.80
2022-11-05T08:23:50.308Z,8.50
2022-11-05T08:26:17.108Z,8.60
2022-11-05T08:28:43.776Z,9.10
2022-11-05T08:31:10.499Z,8.80
2022-11-05T08:33:37.373Z,8.70
2022-11-05T08:36:04.937Z,8.60
2022-11-05T08:38:31.913Z,8.80
2022-11-05T08:40:59.083Z,8.80
2022-11-05T08:43:26.154Z,8.80
2022-11-05T08:45:52.887Z,8.90
2022-11-05T08:48:19.681Z,9.30
2022-11-05T08:50:48.346Z,9.30
2022-11-05T08:53:16.301Z,9.20
2022-11-05T08:55:44.176Z,9.40
2022-11-05T08:58:14.998Z,9.20
2022-11-05T09:00:42.838Z,9.40
2022-11-05T09:03:10.515Z,9.90
2022-11-05T09:05:39.292Z,9.10
2022-11-05T09:08:07.262Z,9.40
2022-11-05T09:10:34.569Z,10.40
2022-11-05T09:13:01.489Z,9.30
2022-11-05T09:15:29.143Z,9.20
2022-11-05T09:17:56.185Z,9.20
2022-11-05T09:20:23.075Z,9.60
2022-11-05T09:22:49.824Z,9.80
2022-11-05T09:25:16.943Z,9.80
2022-11-05T09:27:44.358Z,10.00
2022-11-05T09:30:12.573Z,10.10
2022-11-05T09:32:39.519Z,10.20
2022-11-05T09:35:06.902Z,10.80
2022-11-05T09:37:33.638Z,10.20
2022-11-05T09:40:00.433Z,10.30
2022-11-05T09:42:41.372Z,10.00
2022-11-05T09:45:17.292Z,10.00
2022-11-05T09:47:51.069Z,10.10
2022-11-05T09:50:24.313Z,10.10
2022-11-05T09:52:51.107Z,10.20
2022-11-05T09:55:23.642Z,10.30
2022-11-05T09:57:58.335Z,10.40
2022-11-05T10:00:25.175Z,10.30
2022-11-05T10:02:55.687Z,10.30
2022-11-05T10:05:24.723Z,10.90
2022-11-05T10:07:55.859Z,10.10
2022-11-05T10:10:40.551Z,10.30
2022-11-05T10:13:33.117Z,10.30
2022-11-05T10:16:13.389Z,10.40
2022-11-05T10:18:43.351Z,10.50
2022-11-05T10:21:17.282Z,10.40
2022-11-05T10:23:45.423Z,10.30
2022-11-05T10:26:18.500Z,10.80
2022-11-05T10:28:45.252Z,10.50
2022-11-05T10:31:21.013Z,10.40
2022-11-05T10:33:50.180Z,10.40
2022-11-05T10:36:26.462Z,10.30
2022-11-05T10:38:57.044Z,10.30
2022-11-05T10:41:44.989Z,10.30
2022-11-05T10:44:39.602Z,10.40
2022-11-05T10:47:31.823Z,10.30
2022-11-05T10:50:04.682Z,10.20
2022-11-05T10:52:36.457Z,10.30
2022-11-05T10:55:16.217Z,10.40
2022-11-05T10:57:43.021Z,10.30
2022-11-05T11:00:16.250Z,10.30
2022-11-05T11:02:54.071Z,10.20
2022-11-05T11:05:32.855Z,10.40
2022-11-05T11:08:12.959Z,10.50
2022-11-05T11:10:57.529Z,10.40
2022-11-05T11:13:29.793Z,10.50
2022-11-05T11:16:15.156Z,10.60
2022-11-05T11:18:43.478Z,10.50
2022-11-05T11:21:23.371Z,10.30
2022-11-05T11:24:20.598Z,10.50
2022-11-05T11:26:47.451Z,10.40
2022-11-05T11:29:25.544Z,10.30
2022-11-05T11:31:57.296Z,10.30
2022-11-05T11:34:31.347Z,10.20
2022-11-05T11:37:09.071Z,10.60
2022-11-05T11:39:38.466Z,10.20
2022-11-05T11:42:19.066Z,10.30
2022-11-05T11:44:47.622Z,10.20
2022-11-05T11:47:17.242Z,10.20
2022-11-05T11:49:57.341Z,11.20
2022-11-05T11:52:27.115Z,10.30
2022-11-05T11:55:06.884Z,10.60
2022-11-05T11:57:53.490Z,10.50
2022-11-05T12:00:23.408Z,10.30
2022-11-05T12:03:02.471Z,10.30
2022-11-05T12:05:41.235Z,10.30
2022-11-05T12:08:35.238Z,10.30
2022-11-05T12:11:20.842Z,10.10
2022-11-05T12:13:56.727Z,10.10
2022-11-05T12:16:42.322Z,10.10
2022-11-05T12:19:38.325Z,10.10
2022-11-05T12:22:36.570Z,10.10
2022-11-05T12:25:26.122Z,10.10
2022-11-05T12:28:20.047Z,10.10
2022-11-05T12:30:59.878Z,10.10
2022-11-05T12:33:40.783Z,10.10
2022-11-05T12:36:14.588Z,10.20
2022-11-05T12:39:19.320Z,10.20
2022-11-05T12:42:01.901Z,10.10
2022-11-05T12:44:34.533Z,10.10
2022-11-05T12:47:10.106Z,10.10
2022-11-05T12:50:16.903Z,10.20
2022-11-05T12:53:15.679Z,10.20
2022-11-05T12:55:48.863Z,10.20
2022-11-05T12:58:32.791Z,10.10
2022-11-05T13:01:08.780Z,10.20
2022-11-05T13:03:53.597Z,10.20
2022-11-05T13:06:29.726Z,10.20
2022-11-05T13:09:13.915Z,10.10
2022-11-05T13:11:54.900Z,9.90
2022-11-05T13:14:24.293Z,10.00
2022-11-05T13:17:02.198Z,10.10
2022-11-05T13:19:54.610Z,9.80
2022-11-05T13:22:21.353Z,10.00
2022-11-05T13:24:56.851Z,9.60
2022-11-05T13:27:29.559Z,9.30
2022-11-05T13:30:02.483Z,9.00
2022-11-05T13:32:43.367Z,8.60
2022-11-05T13:35:23.466Z,8.90
2022-11-05T13:38:13.726Z,8.80
2022-11-05T13:40:54.703Z,8.60
2022-11-05T13:43:30.213Z,8.80
2022-11-05T13:46:05.436Z,8.80
2022-11-05T13:48:53.733Z,9.10
2022-11-05T13:51:23.244Z,8.70
2022-11-05T13:54:01.998Z,8.70
2022-11-05T13:56:46.951Z,8.70
2022-11-05T13:59:31.972Z,8.80
2022-11-05T14:02:05.471Z,8.80
2022-11-05T14:04:37.103Z,8.90
2022-11-05T14:07:21.868Z,9.00
2022-11-05T14:10:07.493Z,9.00
2022-11-05T14:12:38.895Z,9.10
2022-11-05T14:15:16.126Z,9.10
2022-11-05T14:18:00.155Z,9.20
2022-11-05T14:20:36.035Z,9.10
2022-11-05T14:23:20.908Z,9.10
2022-11-05T14:25:50.639Z,9.20
2022-11-05T14:28:36.432Z,9.20
2022-11-05T14:31:05.071Z,9.20
2022-11-05T14:33:38.202Z,9.40
2022-11-05T14:36:20.307Z,9.40
2022-11-05T14:38:53.180Z,9.40
2022-11-05T14:41:21.328Z,9.30
2022-11-05T14:44:10.907Z,9.50
2022-11-05T14:46:46.813Z,9.30
2022-11-05T14:49:49.884Z,9.20
2022-11-05T14:52:18.709Z,9.40
2022-11-05T14:54:50.828Z,9.50
2022-11-05T14:57:42.389Z,9.40
2022-11-05T15:00:40.722Z,9.30
2022-11-05T15:03:34.672Z,9.20
2022-11-05T15:06:27.599Z,9.20
2022-11-05T15:09:14.504Z,9.20
2022-11-05T15:11:58.433Z,9.20
2022-11-05T15:14:36.334Z,9.20
2022-11-05T15:17:39.571Z,9.20
2022-11-05T15:20:27.415Z,10.10
2022-11-05T15:23:03.187Z,9.20
2022-11-05T15:25:47.749Z,9.10
2022-11-05T15:28:21.643Z,9.10
2022-11-05T15:30:57.545Z,9.60
2022-11-05T15:33:24.425Z,8.90
2022-11-05T15:35:51.160Z,9.00
2022-11-05T15:38:36.590Z,8.90
2022-11-05T15:41:34.329Z,8.80
2022-11-05T15:44:02.689Z,8.80
2022-11-05T15:46:29.894Z,8.80
2022-11-05T15:48:59.871Z,8.90
2022-11-05T15:51:26.746Z,8.90
2022-11-05T15:54:16.099Z,8.60
2022-11-05T15:56:50.280Z,8.80
2022-11-05T15:59:19.757Z,8.60
2022-11-05T16:01:56.837Z,8.40
2022-11-05T16:04:25.879Z,8.30
2022-11-05T16:06:56.027Z,8.20
2022-11-05T16:09:32.360Z,8.10
2022-11-05T16:12:20.857Z,8.00
2022-11-05T16:15:04.392Z,8.10
2022-11-05T16:17:46.709Z,8.10
2022-11-05T16:20:27.868Z,8.10
2022-11-05T16:22:58.490Z,8.20
2022-11-05T16:25:42.556Z,8.20
2022-11-05T16:28:27.096Z,8.30
2022-11-05T16:30:59.906Z,8.30
2022-11-05T16:33:32.522Z,8.30
2022-11-05T16:35:59.267Z,8.40
2022-11-05T16:38:26.033Z,8.40
2022-11-05T16:40:52.758Z,8.40
2022-11-05T16:43:25.115Z,8.20
2022-11-05T16:45:59.391Z,8.00
2022-11-05T16:48:26.347Z,8.10
2022-11-05T16:50:53.728Z,8.20
2022-11-05T16:53:20.487Z,7.90
2022-11-05T16:55:47.463Z,8.10
2022-11-05T16:58:25.848Z,7.90
2022-11-05T17:01:01.734Z,8.20
2022-11-05T17:03:28.475Z,8.00
2022-11-05T17:05:55.258Z,8.20
2022-11-05T17:08:21.930Z,8.00
2022-11-05T17:10:48.725Z,8.10
2022-11-05T17:13:17.279Z,8.10
2022-11-05T17:15:46.823Z,8.00
2022-11-05T17:18:18.616Z,7.80
2022-11-05T17:20:51.343Z,8.00
2022-11-05T17:23:20.364Z,7.90
2022-11-05T17:25:50.142Z,7.50
2022-11-05T17:28:18.139Z,7.70
2022-11-05T17:30:52.025Z,7.70
2022-11-05T17:33:19.878Z,7.70
2022-11-05T17:35:46.609Z,7.60
2022-11-05T17:38:13.526Z,7.70
2022-11-05T17:40:41.015Z,7.70
2022-11-05T17:43:08.833Z,7.50
2022-11-05T17:45:45.512Z,7.50
2022-11-05T17:48:12.790Z,7.50
2022-11-05T17:50:43.775Z,7.40
2022-11-05T17:53:12.042Z,7.20
2022-11-05T17:55:41.581Z,7.30
2022-11-05T17:58:08.355Z,7.20
2022-11-05T18:00:37.174Z,7.30
2022-11-05T18:03:04.164Z,7.20
2022-11-05T18:05:31.164Z,7.20
2022-11-05T18:07:58.440Z,7.10
2022-11-05T18:10:25.265Z,7.10
2022-11-05T18:12:52.103Z,6.90
2022-11-05T18:15:18.863Z,7.00
2022-11-05T18:17:46.325Z,7.10
2022-11-05T18:20:18.849Z,7.10
2022-11-05T18:22:47.995Z,7.00
2022-11-05T18:25:14.771Z,6.70
2022-11-05T18:27:41.799Z,6.80
2022-11-05T18:30:10.375Z,6.90
2022-11-05T18:32:37.161Z,6.90
2022-11-05T18:35:04.429Z,6.70
2022-11-05T18:37:31.123Z,6.80
2022-11-05T18:39:57.883Z,7.00
2022-11-05T18:42:25.479Z,6.60
2022-11-05T18:44:52.399Z,6.60
2022-11-05T18:47:19.249Z,6.70
2022-11-05T18:49:45.971Z,6.60
2022-11-05T18:52:13.249Z,6.30
2022-11-05T18:54:40.125Z,6.30
2022-11-05T18:57:07.302Z,6.00
2022-11-05T18:59:39.166Z,6.00
2022-11-05T19:02:08.557Z,5.60
2022-11-05T19:04:36.512Z,5.80
2022-11-05T19:07:05.364Z,5.70
2022-11-05T19:09:33.648Z,5.80
2022-11-05T19:12:01.287Z,5.80
2022-11-05T19:14:28.129Z,5.90
2022-11-05T19:16:54.824Z,5.90
2022-11-05T19:19:21.606Z,6.10
2022-11-05T19:21:48.256Z,6.10
2022-11-05T19:24:17.977Z,6.20
2022-11-05T19:26:44.911Z,6.20
2022-11-05T19:29:11.635Z,6.00
2022-11-05T19:31:38.563Z,5.70
2022-11-05T19:34:05.568Z,5.70
2022-11-05T19:36:33.541Z,5.60
2022-11-05T19:39:06.446Z,5.40
2022-11-05T19:41:33.325Z,5.50
2022-11-05T19:44:01.873Z,5.40
2022-11-05T19:46:29.862Z,5.20
2022-11-05T19:48:57.474Z,5.10
2022-11-05T19:51:26.035Z,5.10
2022-11-05T19:53:53.589Z,5.10
2022-11-05T19:56:25.806Z,5.20
2022-11-05T19:58:53.809Z,5.30
2022-11-05T20:01:22.242Z,5.40
2022-11-05T20:03:49.177Z,5.30
2022-11-05T20:06:19.086Z,5.40
2022-11-05T20:09:20.182Z,5.30
2022-11-05T20:11:35.876Z,5.20
2022-11-05T20:14:04.727Z,5.10
2022-11-05T20:16:37.887Z,5.20
2022-11-05T20:19:07.462Z,5.20
2022-11-05T20:21:34.661Z,5.10
2022-11-05T20:24:01.628Z,5.10
2022-11-05T20:26:28.647Z,5.20
2022-11-05T20:28:55.549Z,5.10
2022-11-05T20:31:22.698Z,5.00
2022-11-05T20:33:49.587Z,4.90
2022-11-05T20:36:19.028Z,5.20
2022-11-05T20:38:55.864Z,5.20
2022-11-05T20:41:23.035Z,5.30
2022-11-05T20:43:50.062Z,5.30
2022-11-05T20:46:19.542Z,5.20
2022-11-05T20:48:46.421Z,5.20
2022-11-05T20:51:16.256Z,5.10
2022-11-05T20:53:43.817Z,5.10
2022-11-05T20:56:23.265Z,5.00
2022-11-05T20:58:50.425Z,5.00
2022-11-05T21:01:18.035Z,4.90
2022-11-05T21:03:46.409Z,5.00
2022-11-05T21:06:13.879Z,4.90
2022-11-05T21:08:40.652Z,4.90
2022-11-05T21:11:08.182Z,4.80
2022-11-05T21:13:35.849Z,4.90
2022-11-05T21:16:06.122Z,5.00
2022-11-05T21:18:35.542Z,5.10
2022-11-05T21:21:17.419Z,5.00
2022-11-05T21:23:44.428Z,4.90
2022-11-05T21:26:13.273Z,4.80
2022-11-05T21:28:41.543Z,4.90
2022-11-05T21:31:09.140Z,5.00
2022-11-05T21:33:36.262Z,5.10
2022-11-05T21:36:12.648Z,5.10
2022-11-05T21:38:40.899Z,5.20
2022-11-05T21:41:08.645Z,5.10
2022-11-05T21:43:35.729Z,5.10
2022-11-05T21:46:04.162Z,5.00
2022-11-05T21:48:31.599Z,4.70
2022-11-05T21:51:17.238Z,4.50
2022-11-05T21:54:02.558Z,4.60
2022-11-05T21:56:48.357Z,4.60
2022-11-05T21:59:37.411Z,4.60
2022-11-05T22:02:05.341Z,4.60
2022-11-05T22:04:34.242Z,4.80
2022-11-05T22:07:01.046Z,4.90
2022-11-05T22:09:28.639Z,4.90
2022-11-05T22:11:55.801Z,4.90
2022-11-05T22:14:22.690Z,5.00
2022-11-05T22:16:49.580Z,4.90
2022-11-05T22:19:16.930Z,5.00
2022-11-05T22:21:43.631Z,5.00
2022-11-05T22:24:10.694Z,5.10
2022-11-05T22:26:38.426Z,5.20
2022-11-05T22:29:06.047Z,5.20
2022-11-05T22:31:36.242Z,5.20
2022-11-05T22:34:04.343Z,5.10
2022-11-05T22:36:31.730Z,5.00
2022-11-05T22:38:58.681Z,4.90
2022-11-05T22:41:25.372Z,4.80
2022-11-05T22:43:52.178Z,5.00
2022-11-05T22:46:21.449Z,5.00
2022-11-05T22:48:48.491Z,5.10
2022-11-05T22:51:18.714Z,5.10
2022-11-05T22:53:45.767Z,5.10
2022-11-05T22:56:14.769Z,5.00
2022-11-05T22:58:41.937Z,4.90
2022-11-05T23:01:11.910Z,4.80
2022-11-05T23:03:40.655Z,4.70
2022-11-05T23:06:31.396Z,4.60
2022-11-05T23:09:19.546Z,4.40
2022-11-05T23:11:51.677Z,4.30
2022-11-05T23:14:18.503Z,4.40
2022-11-05T23:17:03.835Z,4.50
2022-11-05T23:19:49.733Z,4.50
2022-11-05T23:22:35.142Z,4.60
2022-11-05T23:25:02.026Z,4.70
2022-11-05T23:27:30.333Z,4.80
2022-11-05T23:29:59.071Z,4.90
2022-11-05T23:32:28.159Z,4.80
2022-11-05T23:34:56.741Z,4.70
2022-11-05T23:37:46.093Z,4.60
2022-11-05T23:40:15.822Z,4.60
2022-11-05T23:43:02.206Z,4.70
2022-11-05T23:45:48.087Z,4.80
2022-11-05T23:48:50.027Z,4.90
2022-11-05T23:51:16.706Z,4.60
2022-11-05T23:53:43.463Z,4.30
2022-11-05T23:56:13.260Z,4.40
2022-11-05T23:58:41.603Z,4.40
